sensor_id;sensor_type;location;lat;lon;timestamp;P1;durP1;ratioP1;P2;durP2;ratioP2
17369;SDS011;8802;52.402;4.920;2023-05-31T00:00:37;6.47;;;3.40;;
17369;SDS011;8802;52.402;4.920;2023-05-31T00:03:04;3.38;;;2.72;;
17369;SDS011;8802;52.402;4.920;2023-05-31T00:05:32;3.70;;;3.17;;
17369;SDS011;8802;52.402;4.920;2023-05-31T00:07:59;4.53;;;3.40;;
17369;SDS011;8802;52.402;4.920;2023-05-31T00:10:26;4.38;;;3.40;;
17369;SDS011;8802;52.402;4.920;2023-05-31T00:12:54;4.05;;;3.45;;
17369;SDS011;8802;52.402;4.920;2023-05-31T00:15:21;6.28;;;3.53;;
17369;SDS011;8802;52.402;4.920;2023-05-31T00:17:48;4.15;;;3.72;;
17369;SDS011;8802;52.402;4.920;2023-05-31T00:20:15;5.10;;;3.75;;
17369;SDS011;8802;52.402;4.920;2023-05-31T00:22:42;4.65;;;3.75;;
17369;SDS011;8802;52.402;4.920;2023-05-31T00:25:09;6.13;;;3.72;;
17369;SDS011;8802;52.402;4.920;2023-05-31T00:27:35;5.75;;;4.05;;
17369;SDS011;8802;52.402;4.920;2023-05-31T00:30:04;6.07;;;3.70;;
17369;SDS011;8802;52.402;4.920;2023-05-31T00:32:31;5.57;;;3.53;;
17369;SDS011;8802;52.402;4.920;2023-05-31T00:34:58;9.77;;;3.80;;
17369;SDS011;8802;52.402;4.920;2023-05-31T00:37:25;3.78;;;3.47;;
17369;SDS011;8802;52.402;4.920;2023-05-31T00:39:52;4.50;;;3.28;;
17369;SDS011;8802;52.402;4.920;2023-05-31T00:42:19;4.30;;;3.45;;
17369;SDS011;8802;52.402;4.920;2023-05-31T00:44:46;5.60;;;3.30;;
17369;SDS011;8802;52.402;4.920;2023-05-31T00:47:14;5.32;;;3.08;;
17369;SDS011;8802;52.402;4.920;2023-05-31T00:49:41;3.60;;;3.00;;
17369;SDS011;8802;52.402;4.920;2023-05-31T00:52:08;3.97;;;2.83;;
17369;SDS011;8802;52.402;4.920;2023-05-31T00:54:35;3.78;;;3.10;;
17369;SDS011;8802;52.402;4.920;2023-05-31T00:57:03;4.85;;;3.22;;
17369;SDS011;8802;52.402;4.920;2023-05-31T00:59:30;3.47;;;2.95;;
17369;SDS011;8802;52.402;4.920;2023-05-31T01:01:57;5.65;;;2.92;;
17369;SDS011;8802;52.402;4.920;2023-05-31T01:04:26;4.95;;;3.20;;
17369;SDS011;8802;52.402;4.920;2023-05-31T01:06:54;3.78;;;3.38;;
17369;SDS011;8802;52.402;4.920;2023-05-31T01:09:22;3.50;;;3.13;;
17369;SDS011;8802;52.402;4.920;2023-05-31T01:11:56;4.53;;;3.33;;
17369;SDS011;8802;52.402;4.920;2023-05-31T01:14:30;4.07;;;2.70;;
17369;SDS011;8802;52.402;4.920;2023-05-31T01:17:11;3.60;;;3.15;;
17369;SDS011;8802;52.402;4.920;2023-05-31T01:19:48;4.10;;;3.33;;
17369;SDS011;8802;52.402;4.920;2023-05-31T01:22:20;3.30;;;2.97;;
17369;SDS011;8802;52.402;4.920;2023-05-31T01:25:04;3.85;;;3.03;;
17369;SDS011;8802;52.402;4.920;2023-05-31T01:27:49;3.58;;;3.08;;
17369;SDS011;8802;52.402;4.920;2023-05-31T01:30:17;3.42;;;3.13;;
17369;SDS011;8802;52.402;4.920;2023-05-31T01:32:48;6.75;;;3.63;;
17369;SDS011;8802;52.402;4.920;2023-05-31T01:35:17;4.93;;;3.15;;
17369;SDS011;8802;52.402;4.920;2023-05-31T01:37:44;5.75;;;3.53;;
17369;SDS011;8802;52.402;4.920;2023-05-31T01:40:11;4.18;;;3.45;;
17369;SDS011;8802;52.402;4.920;2023-05-31T01:42:41;5.63;;;3.80;;
17369;SDS011;8802;52.402;4.920;2023-05-31T01:45:10;4.97;;;3.35;;
17369;SDS011;8802;52.402;4.920;2023-05-31T01:47:38;4.70;;;3.55;;
17369;SDS011;8802;52.402;4.920;2023-05-31T01:50:07;5.40;;;3.60;;
17369;SDS011;8802;52.402;4.920;2023-05-31T01:52:34;4.72;;;4.07;;
17369;SDS011;8802;52.402;4.920;2023-05-31T01:55:02;4.47;;;3.72;;
17369;SDS011;8802;52.402;4.920;2023-05-31T01:57:30;5.15;;;3.80;;
17369;SDS011;8802;52.402;4.920;2023-05-31T01:59:59;5.07;;;3.70;;
17369;SDS011;8802;52.402;4.920;2023-05-31T02:02:30;5.45;;;3.97;;
17369;SDS011;8802;52.402;4.920;2023-05-31T02:05:04;5.75;;;4.05;;
17369;SDS011;8802;52.402;4.920;2023-05-31T02:07:33;5.57;;;3.75;;
17369;SDS011;8802;52.402;4.920;2023-05-31T02:10:00;4.95;;;3.92;;
17369;SDS011;8802;52.402;4.920;2023-05-31T02:12:28;4.35;;;3.70;;
17369;SDS011;8802;52.402;4.920;2023-05-31T02:14:54;5.15;;;3.60;;
17369;SDS011;8802;52.402;4.920;2023-05-31T02:17:21;6.57;;;3.97;;
17369;SDS011;8802;52.402;4.920;2023-05-31T02:19:50;4.82;;;4.30;;
17369;SDS011;8802;52.402;4.920;2023-05-31T02:22:17;5.47;;;3.72;;
17369;SDS011;8802;52.402;4.920;2023-05-31T02:24:44;6.03;;;4.15;;
17369;SDS011;8802;52.402;4.920;2023-05-31T02:27:11;4.93;;;4.07;;
17369;SDS011;8802;52.402;4.920;2023-05-31T02:29:39;8.70;;;3.88;;
17369;SDS011;8802;52.402;4.920;2023-05-31T02:32:06;4.82;;;3.70;;
17369;SDS011;8802;52.402;4.920;2023-05-31T02:34:33;4.88;;;4.25;;
17369;SDS011;8802;52.402;4.920;2023-05-31T02:37:01;4.28;;;3.78;;
17369;SDS011;8802;52.402;4.920;2023-05-31T02:39:29;5.25;;;4.10;;
17369;SDS011;8802;52.402;4.920;2023-05-31T02:41:56;5.22;;;4.13;;
17369;SDS011;8802;52.402;4.920;2023-05-31T02:44:22;6.90;;;4.30;;
17369;SDS011;8802;52.402;4.920;2023-05-31T02:46:49;5.47;;;4.18;;
17369;SDS011;8802;52.402;4.920;2023-05-31T02:49:16;5.07;;;3.75;;
17369;SDS011;8802;52.402;4.920;2023-05-31T02:51:43;4.32;;;3.92;;
17369;SDS011;8802;52.402;4.920;2023-05-31T02:54:12;5.03;;;4.00;;
17369;SDS011;8802;52.402;4.920;2023-05-31T02:56:38;6.55;;;4.90;;
17369;SDS011;8802;52.402;4.920;2023-05-31T02:59:05;7.15;;;4.65;;
17369;SDS011;8802;52.402;4.920;2023-05-31T03:01:32;7.57;;;4.82;;
17369;SDS011;8802;52.402;4.920;2023-05-31T03:03:59;4.47;;;3.75;;
17369;SDS011;8802;52.402;4.920;2023-05-31T03:06:26;5.55;;;4.35;;
17369;SDS011;8802;52.402;4.920;2023-05-31T03:08:53;7.68;;;4.22;;
17369;SDS011;8802;52.402;4.920;2023-05-31T03:11:21;5.80;;;4.50;;
17369;SDS011;8802;52.402;4.920;2023-05-31T03:13:48;5.57;;;4.63;;
17369;SDS011;8802;52.402;4.920;2023-05-31T03:16:15;5.65;;;4.32;;
17369;SDS011;8802;52.402;4.920;2023-05-31T03:18:45;4.72;;;3.80;;
17369;SDS011;8802;52.402;4.920;2023-05-31T03:21:12;5.57;;;4.47;;
17369;SDS011;8802;52.402;4.920;2023-05-31T03:23:40;4.80;;;4.22;;
17369;SDS011;8802;52.402;4.920;2023-05-31T03:26:07;5.10;;;4.35;;
17369;SDS011;8802;52.402;4.920;2023-05-31T03:28:35;5.50;;;4.53;;
17369;SDS011;8802;52.402;4.920;2023-05-31T03:31:02;4.90;;;4.43;;
17369;SDS011;8802;52.402;4.920;2023-05-31T03:33:29;5.72;;;3.92;;
17369;SDS011;8802;52.402;4.920;2023-05-31T03:35:56;4.57;;;4.10;;
17369;SDS011;8802;52.402;4.920;2023-05-31T03:38:23;6.47;;;4.80;;
17369;SDS011;8802;52.402;4.920;2023-05-31T03:40:50;5.13;;;3.90;;
17369;SDS011;8802;52.402;4.920;2023-05-31T03:43:17;4.68;;;4.05;;
17369;SDS011;8802;52.402;4.920;2023-05-31T03:45:45;6.13;;;4.07;;
17369;SDS011;8802;52.402;4.920;2023-05-31T03:48:12;5.43;;;4.30;;
17369;SDS011;8802;52.402;4.920;2023-05-31T03:50:39;5.88;;;4.28;;
17369;SDS011;8802;52.402;4.920;2023-05-31T03:53:06;6.05;;;4.10;;
17369;SDS011;8802;52.402;4.920;2023-05-31T03:55:33;5.63;;;3.58;;
17369;SDS011;8802;52.402;4.920;2023-05-31T03:58:00;6.00;;;4.20;;
17369;SDS011;8802;52.402;4.920;2023-05-31T04:00:27;6.75;;;3.92;;
17369;SDS011;8802;52.402;4.920;2023-05-31T04:02:55;4.78;;;3.63;;
17369;SDS011;8802;52.402;4.920;2023-05-31T04:05:22;6.40;;;4.45;;
17369;SDS011;8802;52.402;4.920;2023-05-31T04:07:49;5.63;;;4.00;;
17369;SDS011;8802;52.402;4.920;2023-05-31T04:10:16;7.18;;;4.35;;
17369;SDS011;8802;52.402;4.920;2023-05-31T04:12:43;5.60;;;4.15;;
17369;SDS011;8802;52.402;4.920;2023-05-31T04:15:10;4.82;;;3.78;;
17369;SDS011;8802;52.402;4.920;2023-05-31T04:17:37;5.93;;;3.92;;
17369;SDS011;8802;52.402;4.920;2023-05-31T04:20:06;6.47;;;3.60;;
17369;SDS011;8802;52.402;4.920;2023-05-31T04:22:33;6.05;;;4.38;;
17369;SDS011;8802;52.402;4.920;2023-05-31T04:25:01;5.78;;;3.63;;
17369;SDS011;8802;52.402;4.920;2023-05-31T04:27:28;6.88;;;4.38;;
17369;SDS011;8802;52.402;4.920;2023-05-31T04:29:57;7.10;;;3.85;;
17369;SDS011;8802;52.402;4.920;2023-05-31T04:32:26;6.00;;;4.25;;
17369;SDS011;8802;52.402;4.920;2023-05-31T04:34:53;5.70;;;3.65;;
17369;SDS011;8802;52.402;4.920;2023-05-31T04:37:24;7.45;;;4.28;;
17369;SDS011;8802;52.402;4.920;2023-05-31T04:39:53;7.60;;;4.70;;
17369;SDS011;8802;52.402;4.920;2023-05-31T04:42:20;4.80;;;4.20;;
17369;SDS011;8802;52.402;4.920;2023-05-31T04:44:49;4.65;;;4.10;;
17369;SDS011;8802;52.402;4.920;2023-05-31T04:47:16;6.95;;;4.47;;
17369;SDS011;8802;52.402;4.920;2023-05-31T04:49:44;5.05;;;4.53;;
17369;SDS011;8802;52.402;4.920;2023-05-31T04:52:11;8.02;;;5.32;;
17369;SDS011;8802;52.402;4.920;2023-05-31T04:54:40;5.68;;;4.63;;
17369;SDS011;8802;52.402;4.920;2023-05-31T04:57:07;8.27;;;5.22;;
17369;SDS011;8802;52.402;4.920;2023-05-31T04:59:34;6.05;;;5.05;;
17369;SDS011;8802;52.402;4.920;2023-05-31T05:02:01;9.68;;;5.57;;
17369;SDS011;8802;52.402;4.920;2023-05-31T05:04:28;7.47;;;6.00;;
17369;SDS011;8802;52.402;4.920;2023-05-31T05:06:55;7.72;;;5.57;;
17369;SDS011;8802;52.402;4.920;2023-05-31T05:09:22;7.45;;;6.15;;
17369;SDS011;8802;52.402;4.920;2023-05-31T05:11:51;9.30;;;6.05;;
17369;SDS011;8802;52.402;4.920;2023-05-31T05:14:18;8.50;;;5.93;;
17369;SDS011;8802;52.402;4.920;2023-05-31T05:16:45;8.63;;;6.32;;
17369;SDS011;8802;52.402;4.920;2023-05-31T05:19:12;7.00;;;5.60;;
17369;SDS011;8802;52.402;4.920;2023-05-31T05:21:39;7.40;;;5.53;;
17369;SDS011;8802;52.402;4.920;2023-05-31T05:24:06;6.38;;;5.70;;
17369;SDS011;8802;52.402;4.920;2023-05-31T05:26:33;8.68;;;5.70;;
17369;SDS011;8802;52.402;4.920;2023-05-31T05:29:01;6.57;;;5.82;;
17369;SDS011;8802;52.402;4.920;2023-05-31T05:31:28;6.30;;;5.25;;
17369;SDS011;8802;52.402;4.920;2023-05-31T05:33:55;7.90;;;5.90;;
17369;SDS011;8802;52.402;4.920;2023-05-31T05:36:22;8.35;;;6.20;;
17369;SDS011;8802;52.402;4.920;2023-05-31T05:38:49;7.50;;;6.53;;
17369;SDS011;8802;52.402;4.920;2023-05-31T05:41:16;8.63;;;6.13;;
17369;SDS011;8802;52.402;4.920;2023-05-31T05:43:43;9.57;;;6.53;;
17369;SDS011;8802;52.402;4.920;2023-05-31T05:46:11;9.85;;;6.78;;
17369;SDS011;8802;52.402;4.920;2023-05-31T05:48:38;7.82;;;5.95;;
17369;SDS011;8802;52.402;4.920;2023-05-31T05:51:05;12.82;;;7.32;;
17369;SDS011;8802;52.402;4.920;2023-05-31T05:53:32;10.55;;;7.28;;
17369;SDS011;8802;52.402;4.920;2023-05-31T05:55:59;9.40;;;8.15;;
17369;SDS011;8802;52.402;4.920;2023-05-31T05:58:26;10.20;;;7.55;;
17369;SDS011;8802;52.402;4.920;2023-05-31T06:00:52;10.15;;;7.82;;
17369;SDS011;8802;52.402;4.920;2023-05-31T06:03:21;8.48;;;7.63;;
17369;SDS011;8802;52.402;4.920;2023-05-31T06:05:49;8.68;;;7.13;;
17369;SDS011;8802;52.402;4.920;2023-05-31T06:08:16;8.82;;;7.05;;
17369;SDS011;8802;52.402;4.920;2023-05-31T06:10:43;9.50;;;7.55;;
17369;SDS011;8802;52.402;4.920;2023-05-31T06:13:10;8.73;;;7.03;;
17369;SDS011;8802;52.402;4.920;2023-05-31T06:15:37;9.38;;;6.35;;
17369;SDS011;8802;52.402;4.920;2023-05-31T06:18:04;10.30;;;7.90;;
17369;SDS011;8802;52.402;4.920;2023-05-31T06:20:33;10.38;;;7.80;;
17369;SDS011;8802;52.402;4.920;2023-05-31T06:23:00;8.32;;;7.53;;
17369;SDS011;8802;52.402;4.920;2023-05-31T06:25:26;9.20;;;7.10;;
17369;SDS011;8802;52.402;4.920;2023-05-31T06:27:54;8.77;;;7.32;;
17369;SDS011;8802;52.402;4.920;2023-05-31T06:30:22;8.85;;;7.07;;
17369;SDS011;8802;52.402;4.920;2023-05-31T06:32:49;9.50;;;7.45;;
17369;SDS011;8802;52.402;4.920;2023-05-31T06:35:16;9.00;;;7.05;;
17369;SDS011;8802;52.402;4.920;2023-05-31T06:37:44;8.27;;;7.20;;
17369;SDS011;8802;52.402;4.920;2023-05-31T06:40:11;8.18;;;7.25;;
17369;SDS011;8802;52.402;4.920;2023-05-31T06:42:38;10.15;;;7.13;;
17369;SDS011;8802;52.402;4.920;2023-05-31T06:45:05;6.93;;;6.15;;
17369;SDS011;8802;52.402;4.920;2023-05-31T06:47:32;11.93;;;8.10;;
17369;SDS011;8802;52.402;4.920;2023-05-31T06:49:59;7.90;;;6.10;;
17369;SDS011;8802;52.402;4.920;2023-05-31T06:52:27;11.38;;;7.07;;
17369;SDS011;8802;52.402;4.920;2023-05-31T06:54:55;8.55;;;6.55;;
17369;SDS011;8802;52.402;4.920;2023-05-31T06:57:22;8.15;;;6.93;;
17369;SDS011;8802;52.402;4.920;2023-05-31T06:59:49;9.73;;;7.55;;
17369;SDS011;8802;52.402;4.920;2023-05-31T07:02:16;9.63;;;6.95;;
17369;SDS011;8802;52.402;4.920;2023-05-31T07:04:43;10.48;;;6.82;;
17369;SDS011;8802;52.402;4.920;2023-05-31T07:07:09;10.32;;;7.13;;
17369;SDS011;8802;52.402;4.920;2023-05-31T07:09:36;10.38;;;7.25;;
17369;SDS011;8802;52.402;4.920;2023-05-31T07:12:05;9.77;;;7.25;;
17369;SDS011;8802;52.402;4.920;2023-05-31T07:14:33;7.88;;;7.07;;
17369;SDS011;8802;52.402;4.920;2023-05-31T07:17:01;8.88;;;6.68;;
17369;SDS011;8802;52.402;4.920;2023-05-31T07:19:28;10.35;;;7.05;;
17369;SDS011;8802;52.402;4.920;2023-05-31T07:21:55;9.13;;;7.70;;
17369;SDS011;8802;52.402;4.920;2023-05-31T07:24:22;9.57;;;7.20;;
17369;SDS011;8802;52.402;4.920;2023-05-31T07:26:49;9.13;;;7.35;;
17369;SDS011;8802;52.402;4.920;2023-05-31T07:29:17;8.98;;;6.72;;
17369;SDS011;8802;52.402;4.920;2023-05-31T07:31:44;8.98;;;6.80;;
17369;SDS011;8802;52.402;4.920;2023-05-31T07:34:11;11.50;;;7.25;;
17369;SDS011;8802;52.402;4.920;2023-05-31T07:36:38;9.82;;;6.88;;
17369;SDS011;8802;52.402;4.920;2023-05-31T07:39:06;9.20;;;6.63;;
17369;SDS011;8802;52.402;4.920;2023-05-31T07:41:35;11.65;;;6.45;;
17369;SDS011;8802;52.402;4.920;2023-05-31T07:44:02;10.00;;;6.72;;
17369;SDS011;8802;52.402;4.920;2023-05-31T07:46:31;9.85;;;7.38;;
17369;SDS011;8802;52.402;4.920;2023-05-31T07:48:58;9.57;;;7.25;;
17369;SDS011;8802;52.402;4.920;2023-05-31T07:51:25;9.65;;;7.30;;
17369;SDS011;8802;52.402;4.920;2023-05-31T07:53:54;8.20;;;7.18;;
17369;SDS011;8802;52.402;4.920;2023-05-31T07:56:21;9.50;;;7.20;;
17369;SDS011;8802;52.402;4.920;2023-05-31T07:58:49;10.98;;;7.32;;
17369;SDS011;8802;52.402;4.920;2023-05-31T08:01:15;9.55;;;7.80;;
17369;SDS011;8802;52.402;4.920;2023-05-31T08:03:44;9.50;;;7.88;;
17369;SDS011;8802;52.402;4.920;2023-05-31T08:06:11;9.25;;;7.05;;
17369;SDS011;8802;52.402;4.920;2023-05-31T08:08:38;11.02;;;7.43;;
17369;SDS011;8802;52.402;4.920;2023-05-31T08:11:06;10.15;;;7.97;;
17369;SDS011;8802;52.402;4.920;2023-05-31T08:13:33;11.02;;;7.57;;
17369;SDS011;8802;52.402;4.920;2023-05-31T08:16:00;8.95;;;6.65;;
17369;SDS011;8802;52.402;4.920;2023-05-31T08:18:27;12.13;;;7.80;;
17369;SDS011;8802;52.402;4.920;2023-05-31T08:20:55;9.52;;;7.28;;
17369;SDS011;8802;52.402;4.920;2023-05-31T08:23:22;9.93;;;7.85;;
17369;SDS011;8802;52.402;4.920;2023-05-31T08:25:49;10.52;;;7.15;;
17369;SDS011;8802;52.402;4.920;2023-05-31T08:28:18;9.73;;;6.90;;
17369;SDS011;8802;52.402;4.920;2023-05-31T08:30:45;10.30;;;8.25;;
17369;SDS011;8802;52.402;4.920;2023-05-31T08:33:13;9.98;;;7.65;;
17369;SDS011;8802;52.402;4.920;2023-05-31T08:35:40;8.07;;;7.28;;
17369;SDS011;8802;52.402;4.920;2023-05-31T08:38:08;9.10;;;7.88;;
17369;SDS011;8802;52.402;4.920;2023-05-31T08:40:35;9.07;;;7.53;;
17369;SDS011;8802;52.402;4.920;2023-05-31T08:43:03;10.38;;;7.88;;
17369;SDS011;8802;52.402;4.920;2023-05-31T08:45:35;10.98;;;8.80;;
17369;SDS011;8802;52.402;4.920;2023-05-31T08:48:05;8.95;;;8.07;;
17369;SDS011;8802;52.402;4.920;2023-05-31T08:50:35;8.68;;;7.82;;
17369;SDS011;8802;52.402;4.920;2023-05-31T08:53:03;9.50;;;7.78;;
17369;SDS011;8802;52.402;4.920;2023-05-31T08:55:35;9.98;;;8.13;;
17369;SDS011;8802;52.402;4.920;2023-05-31T08:58:03;9.40;;;7.97;;
17369;SDS011;8802;52.402;4.920;2023-05-31T09:00:31;12.23;;;8.20;;
17369;SDS011;8802;52.402;4.920;2023-05-31T09:02:59;9.65;;;8.30;;
17369;SDS011;8802;52.402;4.920;2023-05-31T09:05:27;10.40;;;8.80;;
17369;SDS011;8802;52.402;4.920;2023-05-31T09:07:55;11.93;;;8.60;;
17369;SDS011;8802;52.402;4.920;2023-05-31T09:10:22;11.20;;;8.13;;
17369;SDS011;8802;52.402;4.920;2023-05-31T09:12:50;9.32;;;8.07;;
17369;SDS011;8802;52.402;4.920;2023-05-31T09:15:18;10.38;;;8.90;;
17369;SDS011;8802;52.402;4.920;2023-05-31T09:17:49;8.77;;;7.85;;
17369;SDS011;8802;52.402;4.920;2023-05-31T09:20:17;11.50;;;8.30;;
17369;SDS011;8802;52.402;4.920;2023-05-31T09:22:46;9.25;;;7.72;;
17369;SDS011;8802;52.402;4.920;2023-05-31T09:25:14;10.93;;;8.25;;
17369;SDS011;8802;52.402;4.920;2023-05-31T09:27:40;9.27;;;8.05;;
17369;SDS011;8802;52.402;4.920;2023-05-31T09:30:09;12.88;;;8.90;;
17369;SDS011;8802;52.402;4.920;2023-05-31T09:32:38;10.00;;;8.05;;
17369;SDS011;8802;52.402;4.920;2023-05-31T09:35:12;9.73;;;8.68;;
17369;SDS011;8802;52.402;4.920;2023-05-31T09:37:43;9.68;;;8.25;;
17369;SDS011;8802;52.402;4.920;2023-05-31T09:40:12;11.00;;;8.57;;
17369;SDS011;8802;52.402;4.920;2023-05-31T09:42:46;9.27;;;6.95;;
17369;SDS011;8802;52.402;4.920;2023-05-31T09:45:15;8.68;;;7.45;;
17369;SDS011;8802;52.402;4.920;2023-05-31T09:47:42;9.90;;;8.02;;
17369;SDS011;8802;52.402;4.920;2023-05-31T09:50:10;9.35;;;7.45;;
17369;SDS011;8802;52.402;4.920;2023-05-31T09:52:37;11.68;;;8.40;;
17369;SDS011;8802;52.402;4.920;2023-05-31T09:55:05;10.40;;;8.15;;
17369;SDS011;8802;52.402;4.920;2023-05-31T09:57:33;8.85;;;7.55;;
17369;SDS011;8802;52.402;4.920;2023-05-31T10:00:06;9.02;;;7.82;;
17369;SDS011;8802;52.402;4.920;2023-05-31T10:02:42;10.70;;;7.70;;
17369;SDS011;8802;52.402;4.920;2023-05-31T10:05:10;10.73;;;7.88;;
17369;SDS011;8802;52.402;4.920;2023-05-31T10:07:38;10.40;;;7.82;;
17369;SDS011;8802;52.402;4.920;2023-05-31T10:10:06;9.98;;;8.63;;
17369;SDS011;8802;52.402;4.920;2023-05-31T10:12:34;10.32;;;8.27;;
17369;SDS011;8802;52.402;4.920;2023-05-31T10:15:09;9.80;;;8.77;;
17369;SDS011;8802;52.402;4.920;2023-05-31T10:17:42;9.18;;;7.85;;
17369;SDS011;8802;52.402;4.920;2023-05-31T10:20:13;8.10;;;7.30;;
17369;SDS011;8802;52.402;4.920;2023-05-31T10:22:43;8.38;;;7.50;;
17369;SDS011;8802;52.402;4.920;2023-05-31T10:25:11;10.52;;;7.28;;
17369;SDS011;8802;52.402;4.920;2023-05-31T10:27:44;7.82;;;6.55;;
17369;SDS011;8802;52.402;4.920;2023-05-31T10:30:14;13.07;;;7.80;;
17369;SDS011;8802;52.402;4.920;2023-05-31T10:32:50;10.43;;;6.80;;
17369;SDS011;8802;52.402;4.920;2023-05-31T10:35:21;7.90;;;5.90;;
17369;SDS011;8802;52.402;4.920;2023-05-31T10:37:48;11.80;;;6.80;;
17369;SDS011;8802;52.402;4.920;2023-05-31T10:40:19;10.07;;;6.40;;
17369;SDS011;8802;52.402;4.920;2023-05-31T10:42:52;10.88;;;6.00;;
17369;SDS011;8802;52.402;4.920;2023-05-31T10:45:23;7.85;;;6.13;;
17369;SDS011;8802;52.402;4.920;2023-05-31T10:47:55;7.20;;;5.25;;
17369;SDS011;8802;52.402;4.920;2023-05-31T10:50:33;9.32;;;5.72;;
17369;SDS011;8802;52.402;4.920;2023-05-31T10:53:08;7.43;;;5.90;;
17369;SDS011;8802;52.402;4.920;2023-05-31T10:55:39;7.47;;;4.60;;
17369;SDS011;8802;52.402;4.920;2023-05-31T10:58:07;7.35;;;5.45;;
17369;SDS011;8802;52.402;4.920;2023-05-31T11:00:51;9.73;;;5.90;;
17369;SDS011;8802;52.402;4.920;2023-05-31T11:03:22;7.28;;;4.80;;
17369;SDS011;8802;52.402;4.920;2023-05-31T11:05:56;7.20;;;4.82;;
17369;SDS011;8802;52.402;4.920;2023-05-31T11:08:24;8.65;;;5.18;;
17369;SDS011;8802;52.402;4.920;2023-05-31T11:10:52;8.93;;;6.25;;
17369;SDS011;8802;52.402;4.920;2023-05-31T11:13:18;7.00;;;6.30;;
17369;SDS011;8802;52.402;4.920;2023-05-31T11:15:46;7.72;;;5.43;;
17369;SDS011;8802;52.402;4.920;2023-05-31T11:18:14;7.57;;;4.82;;
17369;SDS011;8802;52.402;4.920;2023-05-31T11:20:48;8.57;;;7.68;;
17369;SDS011;8802;52.402;4.920;2023-05-31T11:23:30;8.20;;;6.15;;
17369;SDS011;8802;52.402;4.920;2023-05-31T11:26:15;8.45;;;6.18;;
17369;SDS011;8802;52.402;4.920;2023-05-31T11:28:49;7.85;;;5.93;;
17369;SDS011;8802;52.402;4.920;2023-05-31T11:34:24;10.52;;;6.13;;
17369;SDS011;8802;52.402;4.920;2023-05-31T11:36:55;7.40;;;5.80;;
17369;SDS011;8802;52.402;4.920;2023-05-31T11:39:23;9.05;;;6.85;;
17369;SDS011;8802;52.402;4.920;2023-05-31T11:41:51;10.27;;;6.75;;
17369;SDS011;8802;52.402;4.920;2023-05-31T11:44:22;6.78;;;5.47;;
17369;SDS011;8802;52.402;4.920;2023-05-31T11:46:57;8.55;;;6.63;;
17369;SDS011;8802;52.402;4.920;2023-05-31T11:49:27;8.80;;;6.15;;
17369;SDS011;8802;52.402;4.920;2023-05-31T11:51:57;7.25;;;6.32;;
17369;SDS011;8802;52.402;4.920;2023-05-31T11:54:27;9.93;;;7.07;;
17369;SDS011;8802;52.402;4.920;2023-05-31T11:57:04;11.25;;;6.32;;
17369;SDS011;8802;52.402;4.920;2023-05-31T11:59:33;9.13;;;6.10;;
17369;SDS011;8802;52.402;4.920;2023-05-31T12:02:01;10.80;;;6.35;;
17369;SDS011;8802;52.402;4.920;2023-05-31T12:04:30;9.52;;;6.13;;
17369;SDS011;8802;52.402;4.920;2023-05-31T12:06:58;8.07;;;6.15;;
17369;SDS011;8802;52.402;4.920;2023-05-31T12:09:25;9.48;;;6.68;;
17369;SDS011;8802;52.402;4.920;2023-05-31T12:11:53;10.18;;;7.50;;
17369;SDS011;8802;52.402;4.920;2023-05-31T12:14:21;7.97;;;6.53;;
17369;SDS011;8802;52.402;4.920;2023-05-31T12:16:49;8.88;;;6.43;;
17369;SDS011;8802;52.402;4.920;2023-05-31T12:19:16;7.40;;;5.72;;
17369;SDS011;8802;52.402;4.920;2023-05-31T12:21:43;10.15;;;6.53;;
17369;SDS011;8802;52.402;4.920;2023-05-31T12:24:12;8.60;;;6.47;;
17369;SDS011;8802;52.402;4.920;2023-05-31T12:26:39;10.02;;;6.13;;
17369;SDS011;8802;52.402;4.920;2023-05-31T12:29:08;8.43;;;6.38;;
17369;SDS011;8802;52.402;4.920;2023-05-31T12:31:36;10.25;;;6.95;;
17369;SDS011;8802;52.402;4.920;2023-05-31T12:34:07;9.68;;;6.75;;
17369;SDS011;8802;52.402;4.920;2023-05-31T12:36:39;11.25;;;7.40;;
17369;SDS011;8802;52.402;4.920;2023-05-31T12:39:07;12.30;;;7.00;;
17369;SDS011;8802;52.402;4.920;2023-05-31T12:41:37;9.05;;;7.05;;
17369;SDS011;8802;52.402;4.920;2023-05-31T12:44:07;9.45;;;6.55;;
17369;SDS011;8802;52.402;4.920;2023-05-31T12:46:37;10.98;;;6.40;;
17369;SDS011;8802;52.402;4.920;2023-05-31T12:49:14;9.80;;;6.68;;
17369;SDS011;8802;52.402;4.920;2023-05-31T12:51:45;7.68;;;5.80;;
17369;SDS011;8802;52.402;4.920;2023-05-31T12:54:13;7.82;;;6.65;;
17369;SDS011;8802;52.402;4.920;2023-05-31T12:56:43;13.35;;;6.88;;
17369;SDS011;8802;52.402;4.920;2023-05-31T12:59:10;13.30;;;6.35;;
17369;SDS011;8802;52.402;4.920;2023-05-31T13:01:37;7.15;;;5.85;;
17369;SDS011;8802;52.402;4.920;2023-05-31T13:04:05;7.63;;;6.10;;
17369;SDS011;8802;52.402;4.920;2023-05-31T13:06:33;9.52;;;6.13;;
17369;SDS011;8802;52.402;4.920;2023-05-31T13:09:00;9.27;;;6.45;;
17369;SDS011;8802;52.402;4.920;2023-05-31T13:11:30;11.52;;;6.40;;
17369;SDS011;8802;52.402;4.920;2023-05-31T13:14:00;7.65;;;6.50;;
17369;SDS011;8802;52.402;4.920;2023-05-31T13:16:28;8.80;;;5.80;;
17369;SDS011;8802;52.402;4.920;2023-05-31T13:18:55;8.43;;;6.43;;
17369;SDS011;8802;52.402;4.920;2023-05-31T13:21:23;12.25;;;6.30;;
17369;SDS011;8802;52.402;4.920;2023-05-31T13:23:50;9.30;;;7.10;;
17369;SDS011;8802;52.402;4.920;2023-05-31T13:26:17;8.30;;;6.38;;
17369;SDS011;8802;52.402;4.920;2023-05-31T13:28:44;7.78;;;5.65;;
17369;SDS011;8802;52.402;4.920;2023-05-31T13:31:12;9.23;;;6.88;;
17369;SDS011;8802;52.402;4.920;2023-05-31T13:33:39;12.05;;;7.32;;
17369;SDS011;8802;52.402;4.920;2023-05-31T13:36:06;10.05;;;6.45;;
17369;SDS011;8802;52.402;4.920;2023-05-31T13:38:33;8.63;;;5.85;;
17369;SDS011;8802;52.402;4.920;2023-05-31T13:41:00;11.18;;;7.07;;
17369;SDS011;8802;52.402;4.920;2023-05-31T13:43:29;7.53;;;6.60;;
17369;SDS011;8802;52.402;4.920;2023-05-31T13:45:56;8.55;;;6.60;;
17369;SDS011;8802;52.402;4.920;2023-05-31T13:48:26;7.78;;;6.55;;
17369;SDS011;8802;52.402;4.920;2023-05-31T13:50:53;8.73;;;6.80;;
17369;SDS011;8802;52.402;4.920;2023-05-31T13:53:20;9.13;;;6.95;;
17369;SDS011;8802;52.402;4.920;2023-05-31T13:55:46;9.73;;;6.75;;
17369;SDS011;8802;52.402;4.920;2023-05-31T13:58:13;8.23;;;6.43;;
17369;SDS011;8802;52.402;4.920;2023-05-31T14:00:41;10.10;;;6.63;;
17369;SDS011;8802;52.402;4.920;2023-05-31T14:03:09;7.93;;;6.53;;
17369;SDS011;8802;52.402;4.920;2023-05-31T14:05:37;7.45;;;6.55;;
17369;SDS011;8802;52.402;4.920;2023-05-31T14:08:04;8.63;;;6.03;;
17369;SDS011;8802;52.402;4.920;2023-05-31T14:10:33;8.27;;;5.85;;
17369;SDS011;8802;52.402;4.920;2023-05-31T14:13:00;12.73;;;7.28;;
17369;SDS011;8802;52.402;4.920;2023-05-31T14:15:28;7.32;;;6.35;;
17369;SDS011;8802;52.402;4.920;2023-05-31T14:17:54;10.40;;;6.80;;
17369;SDS011;8802;52.402;4.920;2023-05-31T14:20:21;7.88;;;7.03;;
17369;SDS011;8802;52.402;4.920;2023-05-31T14:22:50;9.77;;;6.72;;
17369;SDS011;8802;52.402;4.920;2023-05-31T14:25:17;9.43;;;6.60;;
17369;SDS011;8802;52.402;4.920;2023-05-31T14:27:44;6.38;;;5.78;;
17369;SDS011;8802;52.402;4.920;2023-05-31T14:30:11;12.23;;;6.60;;
17369;SDS011;8802;52.402;4.920;2023-05-31T14:32:38;11.20;;;6.40;;
17369;SDS011;8802;52.402;4.920;2023-05-31T14:35:05;7.22;;;6.28;;
17369;SDS011;8802;52.402;4.920;2023-05-31T14:37:35;9.27;;;6.85;;
17369;SDS011;8802;52.402;4.920;2023-05-31T14:40:04;8.60;;;6.68;;
17369;SDS011;8802;52.402;4.920;2023-05-31T14:42:32;7.70;;;6.38;;
17369;SDS011;8802;52.402;4.920;2023-05-31T14:44:59;7.32;;;5.65;;
17369;SDS011;8802;52.402;4.920;2023-05-31T14:47:28;9.57;;;6.45;;
17369;SDS011;8802;52.402;4.920;2023-05-31T14:49:56;9.45;;;6.45;;
17369;SDS011;8802;52.402;4.920;2023-05-31T14:52:24;9.38;;;7.28;;
17369;SDS011;8802;52.402;4.920;2023-05-31T14:54:51;8.27;;;7.35;;
17369;SDS011;8802;52.402;4.920;2023-05-31T14:57:19;10.30;;;7.32;;
17369;SDS011;8802;52.402;4.920;2023-05-31T14:59:46;9.77;;;7.63;;
17369;SDS011;8802;52.402;4.920;2023-05-31T15:02:13;8.02;;;7.18;;
17369;SDS011;8802;52.402;4.920;2023-05-31T15:04:40;7.93;;;7.13;;
17369;SDS011;8802;52.402;4.920;2023-05-31T15:07:07;9.13;;;7.03;;